createdAt,value
2022-11-08T00:02:22.576Z,3.97
2022-11-08T00:05:44.006Z,4.02
2022-11-08T00:09:05.145Z,4.04
2022-11-08T00:12:27.155Z,4.06
2022-11-08T00:15:29.749Z,4.06
2022-11-08T00:18:32.695Z,4.05
2022-11-08T00:21:35.224Z,4.00
2022-11-08T00:24:38.206Z,3.97
2022-11-08T00:27:40.689Z,3.90
2022-11-08T00:30:44.267Z,3.84
2022-11-08T00:33:50.096Z,3.80
2022-11-08T00:36:55.276Z,3.75
2022-11-08T00:39:59.350Z,3.70
2022-11-08T00:43:02.859Z,3.63
2022-11-08T00:46:06.907Z,3.56
2022-11-08T00:49:10.190Z,3.52
2022-11-08T00:52:12.703Z,3.53
2022-11-08T00:55:15.665Z,3.57
2022-11-08T00:58:19.456Z,3.61
2022-11-08T01:01:26.310Z,3.62
2022-11-08T01:04:31.664Z,3.64
2022-11-08T01:07:34.428Z,3.65
2022-11-08T01:10:37.587Z,3.69
2022-11-08T01:13:40.641Z,3.76
2022-11-08T01:16:45.374Z,3.79
2022-11-08T01:19:48.200Z,3.86
2022-11-08T01:22:50.716Z,3.90
2022-11-08T01:25:53.482Z,3.93
2022-11-08T01:29:03.766Z,3.95
2022-11-08T01:32:06.550Z,3.99
2022-11-08T01:35:09.468Z,3.98
2022-11-08T01:38:14.107Z,4.05
2022-11-08T01:41:19.630Z,4.08
2022-11-08T01:44:22.974Z,4.10
2022-11-08T01:47:25.674Z,4.12
2022-11-08T01:50:28.497Z,4.17
2022-11-08T01:53:31.028Z,4.14
2022-11-08T01:59:40.961Z,4.10
2022-11-08T02:02:44.898Z,4.07
2022-11-08T02:05:48.112Z,4.06
2022-11-08T02:08:53.237Z,4.05
2022-11-08T02:11:56.130Z,4.05
2022-11-08T02:15:00.253Z,4.02
2022-11-08T02:18:03.182Z,4.01
2022-11-08T02:21:17.800Z,4.01
2022-11-08T02:24:20.553Z,4.01
2022-11-08T02:27:23.809Z,3.97
2022-11-08T02:30:38.573Z,3.98
2022-11-08T02:33:41.645Z,3.95
2022-11-08T02:36:46.428Z,3.95
2022-11-08T02:39:49.034Z,3.94
2022-11-08T02:42:51.786Z,3.91
2022-11-08T02:45:54.276Z,3.91
2022-11-08T02:48:56.984Z,3.93
2022-11-08T02:51:59.626Z,3.99
2022-11-08T02:55:03.427Z,3.99
2022-11-08T02:58:06.101Z,4.01
2022-11-08T03:01:10.822Z,4.00
2022-11-08T03:04:13.538Z,3.98
2022-11-08T03:07:19.596Z,3.95
2022-11-08T03:10:27.091Z,3.94
2022-11-08T03:13:29.824Z,3.89
2022-11-08T03:16:32.251Z,3.89
2022-11-08T03:19:35.041Z,3.85
2022-11-08T03:22:37.458Z,3.83
2022-11-08T03:25:40.260Z,3.77
2022-11-08T03:28:42.812Z,3.80
2022-11-08T03:31:45.560Z,3.81
2022-11-08T03:34:47.978Z,3.80
2022-11-08T03:37:55.389Z,3.83
2022-11-08T03:40:57.951Z,3.84
2022-11-08T03:44:00.674Z,3.85
2022-11-08T03:47:03.570Z,3.87
2022-11-08T03:50:07.482Z,3.87
2022-11-08T03:53:10.056Z,3.84
2022-11-08T03:56:12.792Z,3.84
2022-11-08T03:59:15.340Z,3.85
2022-11-08T04:02:18.205Z,3.83
2022-11-08T04:05:20.993Z,3.81
2022-11-08T04:08:23.573Z,3.74
2022-11-08T04:11:55.401Z,3.78
2022-11-08T04:15:15.783Z,3.75
2022-11-08T04:18:37.882Z,3.75
2022-11-08T04:21:43.522Z,3.78
2022-11-08T04:24:46.262Z,3.76
2022-11-08T04:27:48.735Z,3.78
2022-11-08T04:30:53.284Z,3.82
2022-11-08T04:33:55.788Z,3.88
2022-11-08T04:36:58.490Z,3.83
2022-11-08T04:40:01.000Z,3.85
2022-11-08T04:43:05.992Z,3.84
2022-11-08T04:46:13.773Z,3.84
2022-11-08T04:49:16.624Z,3.86
2022-11-08T04:52:19.169Z,3.87
2022-11-08T04:55:22.962Z,3.88
2022-11-08T04:58:25.381Z,3.88
2022-11-08T05:04:36.471Z,3.85
2022-11-08T05:07:39.176Z,3.88
2022-11-08T05:10:42.539Z,3.89
2022-11-08T05:13:45.677Z,3.91
2022-11-08T05:16:48.140Z,3.94
2022-11-08T05:20:09.473Z,3.95
2022-11-08T05:23:23.892Z,3.94
2022-11-08T05:26:27.415Z,3.98
2022-11-08T05:29:29.858Z,3.99
2022-11-08T05:32:32.617Z,4.02
2022-11-08T05:35:35.258Z,4.03
2022-11-08T05:38:39.355Z,4.08
2022-11-08T05:41:41.844Z,4.09
2022-11-08T05:44:44.606Z,4.11
2022-11-08T05:47:47.381Z,4.11
2022-11-08T05:50:50.133Z,4.12
2022-11-08T05:53:52.633Z,4.09
2022-11-08T05:56:55.359Z,4.10
2022-11-08T05:59:57.892Z,4.11
2022-11-08T06:03:04.909Z,4.10
2022-11-08T06:06:13.217Z,4.12
2022-11-08T06:09:15.704Z,4.12
2022-11-08T06:12:20.091Z,3.99
2022-11-08T06:15:22.647Z,4.12
2022-11-08T06:18:25.466Z,4.13
2022-11-08T06:21:28.026Z,4.18
2022-11-08T06:24:30.800Z,4.20
2022-11-08T06:27:33.426Z,4.16
2022-11-08T06:30:36.381Z,4.17
2022-11-08T06:33:38.912Z,4.28
2022-11-08T06:36:41.681Z,4.31
2022-11-08T06:39:44.904Z,4.38
2022-11-08T06:42:48.764Z,4.34
2022-11-08T06:45:51.195Z,4.57
2022-11-08T06:48:54.857Z,4.62
2022-11-08T06:51:57.436Z,4.76
2022-11-08T06:55:00.293Z,4.74
2022-11-08T06:58:04.166Z,4.76
2022-11-08T07:01:08.528Z,4.86
2022-11-08T07:04:12.014Z,4.78
2022-11-08T07:07:15.140Z,4.94
2022-11-08T07:10:19.636Z,5.06
2022-11-08T07:13:22.672Z,5.04
2022-11-08T07:16:25.222Z,5.06
2022-11-08T07:19:28.088Z,4.98
2022-11-08T07:22:30.627Z,5.06
2022-11-08T07:25:34.340Z,5.05
2022-11-08T07:28:37.297Z,5.03
2022-11-08T07:31:40.118Z,5.07
2022-11-08T07:34:42.740Z,5.13
2022-11-08T07:37:45.606Z,5.20
2022-11-08T07:40:48.375Z,5.54
2022-11-08T07:43:51.326Z,5.67
2022-11-08T07:46:55.668Z,5.58
2022-11-08T07:49:58.638Z,5.45
2022-11-08T07:53:01.605Z,5.53
2022-11-08T07:56:04.662Z,5.45
2022-11-08T07:59:07.194Z,5.47
2022-11-08T08:02:12.132Z,5.43
2022-11-08T08:05:15.796Z,5.50
2022-11-08T08:08:18.899Z,5.33
2022-11-08T08:11:21.813Z,5.44
2022-11-08T08:14:24.429Z,5.52
2022-11-08T08:17:27.188Z,5.61
2022-11-08T08:20:30.350Z,5.56
2022-11-08T08:23:33.151Z,5.80
2022-11-08T08:26:35.636Z,5.94
2022-11-08T08:29:38.480Z,6.02
2022-11-08T08:32:40.986Z,6.14
2022-11-08T08:35:46.851Z,6.15
2022-11-08T08:38:49.505Z,6.35
2022-11-08T08:41:52.330Z,6.35
2022-11-08T08:44:55.210Z,6.57
2022-11-08T08:47:58.428Z,6.74
2022-11-08T08:51:01.168Z,6.56
2022-11-08T08:54:04.210Z,6.68
2022-11-08T08:57:06.802Z,6.72
2022-11-08T09:03:34.065Z,6.97
2022-11-08T09:06:37.495Z,6.80
2022-11-08T09:09:40.108Z,6.70
2022-11-08T09:12:42.936Z,6.84
2022-11-08T09:15:45.554Z,6.93
2022-11-08T09:18:48.562Z,7.19
2022-11-08T09:21:53.440Z,7.36
2022-11-08T09:24:58.418Z,7.54
2022-11-08T09:28:02.278Z,7.61
2022-11-08T09:31:10.743Z,7.88
2022-11-08T09:34:15.148Z,8.23
2022-11-08T09:37:20.634Z,8.34
2022-11-08T09:40:31.737Z,8.23
2022-11-08T09:43:46.691Z,8.43
2022-11-08T09:46:56.480Z,8.49
2022-11-08T09:50:18.606Z,8.52
2022-11-08T09:53:39.931Z,8.65
2022-11-08T09:56:44.109Z,8.86
2022-11-08T09:59:50.833Z,8.77
2022-11-08T10:02:53.763Z,9.06
2022-11-08T10:06:06.624Z,9.10
2022-11-08T10:09:39.485Z,9.18
2022-11-08T10:12:57.581Z,9.39
2022-11-08T10:16:18.732Z,9.44
2022-11-08T10:19:24.632Z,9.54
2022-11-08T10:22:29.438Z,9.67
2022-11-08T10:25:32.209Z,9.68
2022-11-08T10:28:37.697Z,9.82
2022-11-08T10:31:41.790Z,9.99
2022-11-08T10:34:54.489Z,10.13
2022-11-08T10:37:59.916Z,10.27
2022-11-08T10:41:21.793Z,10.32
2022-11-08T10:44:26.112Z,10.45
2022-11-08T10:47:31.036Z,10.60
2022-11-08T10:50:51.010Z,10.80
2022-11-08T10:53:53.692Z,11.11
2022-11-08T10:56:56.809Z,11.17
2022-11-08T11:00:18.664Z,11.19
2022-11-08T11:03:28.988Z,11.34
2022-11-08T11:06:33.656Z,11.32
2022-11-08T11:09:36.946Z,11.41
2022-11-08T11:12:39.786Z,11.43
2022-11-08T11:16:03.213Z,11.50
2022-11-08T11:19:07.156Z,11.58
2022-11-08T11:22:12.167Z,11.59
2022-11-08T11:25:18.058Z,11.59
2022-11-08T11:28:21.056Z,11.73
2022-11-08T11:31:23.620Z,11.73
2022-11-08T11:34:43.372Z,11.75
2022-11-08T11:37:47.302Z,11.92
2022-11-08T11:40:51.881Z,11.96
2022-11-08T11:44:13.257Z,12.06
2022-11-08T11:47:21.700Z,12.38
2022-11-08T11:50:30.344Z,12.32
2022-11-08T11:53:38.809Z,12.32
2022-11-08T11:56:53.679Z,12.42
2022-11-08T12:00:08.654Z,12.59
2022-11-08T12:03:21.216Z,12.67
2022-11-08T12:06:48.559Z,12.80
2022-11-08T12:09:54.417Z,12.75
2022-11-08T12:13:04.459Z,12.73
2022-11-08T12:16:13.326Z,12.84
2022-11-08T12:19:47.801Z,12.81
2022-11-08T12:23:05.539Z,12.98
2022-11-08T12:26:29.869Z,13.03
2022-11-08T12:29:35.335Z,12.87
2022-11-08T12:33:22.723Z,12.77
2022-11-08T12:36:27.913Z,12.82
2022-11-08T12:39:30.632Z,12.84
2022-11-08T12:42:45.495Z,12.87
2022-11-08T12:46:02.339Z,13.07
2022-11-08T12:49:27.517Z,12.98
2022-11-08T12:53:02.341Z,12.78
2022-11-08T12:56:05.866Z,12.75
2022-11-08T12:59:28.806Z,12.95
2022-11-08T13:02:35.781Z,12.78
2022-11-08T13:05:43.770Z,13.12
2022-11-08T13:09:14.977Z,13.19
2022-11-08T13:12:29.937Z,13.25
2022-11-08T13:15:32.803Z,13.07
2022-11-08T13:18:51.612Z,13.12
2022-11-08T13:21:57.602Z,13.23
2022-11-08T13:25:02.059Z,13.12
2022-11-08T13:28:42.711Z,13.25
2022-11-08T13:31:59.337Z,13.24
2022-11-08T13:35:43.888Z,13.11
2022-11-08T13:38:59.068Z,13.25
2022-11-08T13:42:28.603Z,13.13
2022-11-08T13:45:33.858Z,13.20
2022-11-08T13:48:40.355Z,13.19
2022-11-08T13:51:44.027Z,13.08
2022-11-08T13:54:50.169Z,12.96
2022-11-08T13:58:01.231Z,12.96
2022-11-08T14:01:06.185Z,12.95
2022-11-08T14:04:40.535Z,12.85
2022-11-08T14:07:48.344Z,12.79
2022-11-08T14:11:02.502Z,12.82
2022-11-08T14:14:25.409Z,12.81
2022-11-08T14:17:42.217Z,12.91
2022-11-08T14:20:46.482Z,12.71
2022-11-08T14:23:50.999Z,12.73
2022-11-08T14:26:53.918Z,12.69
2022-11-08T14:30:00.648Z,12.57
2022-11-08T14:33:22.636Z,12.38
2022-11-08T14:36:27.960Z,12.19
2022-11-08T14:39:31.531Z,11.96
2022-11-08T14:42:34.471Z,11.83
2022-11-08T14:45:37.269Z,11.66
2022-11-08T14:48:54.251Z,11.71
2022-11-08T14:52:14.694Z,11.63
2022-11-08T14:55:23.389Z,11.53
2022-11-08T14:58:28.327Z,11.47
2022-11-08T15:01:31.931Z,11.60
2022-11-08T15:04:39.370Z,11.42
2022-11-08T15:07:42.409Z,11.42
2022-11-08T15:10:53.425Z,11.28
2022-11-08T15:14:03.772Z,11.24
2022-11-08T15:17:06.376Z,11.13
2022-11-08T15:20:13.237Z,11.16
2022-11-08T15:23:31.326Z,11.03
2022-11-08T15:26:35.631Z,10.84
2022-11-08T15:30:01.505Z,10.81
2022-11-08T15:33:05.544Z,10.73
2022-11-08T15:36:13.017Z,10.64
2022-11-08T15:39:39.392Z,10.58
2022-11-08T15:42:46.627Z,10.38
2022-11-08T15:45:53.248Z,10.38
2022-11-08T15:48:57.999Z,10.42
2022-11-08T15:52:01.873Z,10.33
2022-11-08T15:55:04.706Z,10.25
2022-11-08T15:58:16.572Z,10.19
2022-11-08T16:01:20.947Z,10.16
2022-11-08T16:04:23.922Z,10.07
2022-11-08T16:07:26.442Z,9.83
2022-11-08T16:10:38.813Z,9.56
2022-11-08T16:13:41.399Z,9.29
2022-11-08T16:16:44.193Z,9.16
2022-11-08T16:19:47.405Z,9.13
2022-11-08T16:22:51.744Z,9.19
2022-11-08T16:25:56.008Z,9.28
2022-11-08T16:28:58.963Z,9.39
2022-11-08T16:32:01.631Z,9.39
2022-11-08T16:35:05.031Z,9.39
2022-11-08T16:38:09.461Z,9.15
2022-11-08T16:41:12.895Z,9.09
2022-11-08T16:44:15.665Z,9.27
2022-11-08T16:47:19.332Z,9.51
2022-11-08T16:50:25.709Z,9.65
2022-11-08T16:53:32.474Z,9.57
2022-11-08T16:56:35.307Z,9.56
2022-11-08T16:59:38.750Z,9.53
2022-11-08T17:02:52.710Z,9.53
2022-11-08T17:05:55.971Z,9.52
2022-11-08T17:08:58.886Z,9.47
2022-11-08T17:12:03.585Z,9.47
2022-11-08T17:15:11.054Z,9.45
2022-11-08T17:18:16.518Z,9.42
2022-11-08T17:24:44.079Z,9.30
2022-11-08T17:27:47.414Z,9.13
2022-11-08T17:30:50.482Z,8.98
2022-11-08T17:33:55.140Z,8.74
2022-11-08T17:36:58.166Z,8.54
2022-11-08T17:40:01.638Z,8.55
2022-11-08T17:43:04.749Z,8.54
2022-11-08T17:46:10.803Z,8.54
2022-11-08T17:49:14.211Z,8.46
2022-11-08T17:52:16.951Z,8.24
2022-11-08T17:55:19.888Z,8.08
2022-11-08T17:58:23.269Z,8.04
2022-11-08T18:01:26.453Z,7.94
2022-11-08T18:04:29.655Z,7.92
2022-11-08T18:07:32.348Z,7.93
2022-11-08T18:10:36.551Z,7.84
2022-11-08T18:13:39.618Z,7.89
2022-11-08T18:16:42.618Z,8.01
2022-11-08T18:19:45.451Z,8.01
2022-11-08T18:22:48.731Z,7.96
2022-11-08T18:25:53.377Z,7.85
2022-11-08T18:28:56.195Z,7.87
2022-11-08T18:32:01.707Z,7.80
2022-11-08T18:35:05.451Z,7.86
2022-11-08T18:38:08.125Z,7.79
2022-11-08T18:41:13.167Z,7.74
2022-11-08T18:44:16.116Z,7.76
2022-11-08T18:47:18.871Z,7.71
2022-11-08T18:50:21.688Z,7.71
2022-11-08T18:53:24.737Z,7.81
2022-11-08T18:56:27.569Z,7.74
2022-11-08T18:59:30.362Z,7.74
2022-11-08T19:02:33.233Z,7.76
2022-11-08T19:05:37.587Z,7.76
2022-11-08T19:08:41.077Z,7.72
2022-11-08T19:11:44.823Z,7.66
2022-11-08T19:14:49.045Z,7.67
2022-11-08T19:17:54.019Z,7.64
2022-11-08T19:21:02.815Z,7.62
2022-11-08T19:24:10.943Z,7.55
2022-11-08T19:27:14.219Z,7.48
2022-11-08T19:30:17.240Z,7.51
2022-11-08T19:33:22.849Z,7.48
2022-11-08T19:36:27.849Z,7.40
2022-11-08T19:39:30.866Z,7.20
2022-11-08T19:42:33.848Z,7.15
2022-11-08T19:45:36.808Z,7.18
2022-11-08T19:48:41.921Z,7.29
2022-11-08T19:51:44.631Z,7.34
2022-11-08T19:54:47.677Z,7.16
2022-11-08T19:57:50.477Z,7.08
2022-11-08T20:00:53.538Z,6.99
2022-11-08T20:03:58.077Z,6.84
2022-11-08T20:07:00.837Z,6.95
2022-11-08T20:10:04.337Z,7.06
2022-11-08T20:13:08.490Z,7.12
2022-11-08T20:16:14.269Z,6.97
2022-11-08T20:19:17.879Z,7.25
2022-11-08T20:22:20.903Z,7.29
2022-11-08T20:25:23.690Z,7.25
2022-11-08T20:28:27.307Z,7.38
2022-11-08T20:31:30.179Z,7.41
2022-11-08T20:34:34.226Z,7.26
2022-11-08T20:37:37.074Z,7.32
2022-11-08T20:40:41.264Z,7.35
2022-11-08T20:43:45.912Z,7.38
2022-11-08T20:46:48.963Z,7.49
2022-11-08T20:49:51.965Z,7.40
2022-11-08T20:52:54.876Z,7.38
2022-11-08T20:55:58.840Z,7.41
2022-11-08T20:59:01.955Z,7.47
2022-11-08T21:02:05.111Z,7.45
2022-11-08T21:05:08.452Z,7.49
2022-11-08T21:08:57.785Z,7.45
2022-11-08T21:11:37.432Z,7.35
2022-11-08T21:14:40.192Z,7.46
2022-11-08T21:17:43.594Z,7.50
2022-11-08T21:20:50.515Z,7.49
2022-11-08T21:23:54.619Z,7.44
2022-11-08T21:26:57.497Z,7.37
2022-11-08T21:30:00.309Z,7.40
2022-11-08T21:33:02.847Z,7.35
2022-11-08T21:36:06.442Z,7.20
2022-11-08T21:39:09.375Z,7.29
2022-11-08T21:42:12.194Z,7.30
2022-11-08T21:45:14.775Z,7.25
2022-11-08T21:48:18.256Z,7.26
2022-11-08T21:51:20.985Z,7.32
2022-11-08T21:54:23.851Z,7.24
2022-11-08T21:57:26.625Z,7.23
2022-11-08T22:00:29.508Z,7.15
2022-11-08T22:03:33.262Z,7.28
2022-11-08T22:06:36.302Z,7.21
2022-11-08T22:09:39.396Z,7.12
2022-11-08T22:12:41.889Z,7.01
2022-11-08T22:15:44.965Z,7.07
2022-11-08T22:19:04.235Z,7.01
2022-11-08T22:22:07.818Z,7.00
2022-11-08T22:25:10.285Z,7.12
2022-11-08T22:28:13.049Z,6.97
2022-11-08T22:31:15.658Z,6.98
2022-11-08T22:34:18.515Z,6.92
2022-11-08T22:37:20.987Z,6.81
2022-11-08T22:40:24.020Z,6.86
2022-11-08T22:43:26.517Z,6.85
2022-11-08T22:46:29.377Z,6.88
2022-11-08T22:49:32.030Z,7.03
2022-11-08T22:52:34.795Z,7.10
2022-11-08T22:55:37.347Z,7.29
2022-11-08T22:58:40.506Z,7.30
2022-11-08T23:01:43.101Z,7.51
2022-11-08T23:04:45.873Z,7.52
2022-11-08T23:07:48.401Z,7.59
2022-11-08T23:11:10.224Z,7.64
2022-11-08T23:14:36.887Z,7.64
2022-11-08T23:17:40.375Z,7.72
2022-11-08T23:21:01.829Z,7.74
2022-11-08T23:24:20.286Z,7.78
2022-11-08T23:27:41.889Z,7.82
2022-11-08T23:31:03.275Z,7.83
2022-11-08T23:34:05.747Z,7.84
2022-11-08T23:37:08.589Z,7.85
2022-11-08T23:40:31.262Z,7.87
2022-11-08T23:43:52.954Z,7.92
2022-11-08T23:46:58.015Z,7.96
2022-11-08T23:50:00.877Z,7.94
2022-11-08T23:53:03.538Z,8.03
2022-11-08T23:56:06.519Z,8.02
2022-11-08T23:59:09.706Z,8.08
